Time;durP1;ratioP1;P1;durP2;ratioP2;P2;SDS_P1;SDS_P2;PMS_P1;PMS_P2;Temp;Humidity;BMP_temperature;BMP_pressure;BME280_temperature;BME280_humidity;BME280_pressure;Samples;Min_cycle;Max_cycle;Signal;HPM_P1;HPM_P2
2021/12/07 00:00:55;;;;;;;4.10;2.80;;;-2.70;99.90;;;;;;4377589;32;20177;-69
2021/12/07 00:03:22;;;;;;;3.85;2.60;;;-2.70;99.90;;;;;;4377620;32;20066;-67
2021/12/07 00:05:50;;;;;;;3.70;2.80;;;-2.70;99.90;;;;;;4391499;32;20061;-69
2021/12/07 00:08:17;;;;;;;4.05;2.50;;;-2.80;99.90;;;;;;4390528;32;20116;-71
2021/12/07 00:10:44;;;;;;;3.70;2.35;;;-2.70;99.90;;;;;;4377521;32;20070;-69
2021/12/07 00:13:11;;;;;;;2.95;2.30;;;-2.80;99.90;;;;;;4377381;32;20085;-70
2021/12/07 00:15:39;;;;;;;3.33;2.20;;;-2.90;99.90;;;;;;4390310;32;20150;-70
2021/12/07 00:18:06;;;;;;;3.83;2.65;;;-2.80;99.90;;;;;;4378151;32;20436;-69
2021/12/07 00:20:33;;;;;;;3.95;2.70;;;-2.80;99.90;;;;;;4365190;32;20089;-70
2021/12/07 00:23:06;;;;;;;3.90;2.70;;;-3.00;99.90;;;;;;4365096;32;20592;-70
2021/12/07 00:28:12;;;;;;;5.30;3.70;;;-2.80;99.90;;;;;;3856988;37;20062;-70
2021/12/07 00:30:39;;;;;;;5.75;3.50;;;-2.90;99.90;;;;;;4420110;32;20505;-70
2021/12/07 00:33:12;;;;;;;4.80;3.30;;;-2.70;99.90;;;;;;4405840;32;20092;-69
2021/12/07 00:35:39;;;;;;;6.20;3.60;;;-2.80;99.90;;;;;;4406204;32;20084;-70
2021/12/07 00:38:16;;;;;;;6.20;3.50;;;-2.90;99.90;;;;;;4405617;32;20088;-70
2021/12/07 00:40:44;;;;;;;4.50;3.03;;;-2.80;99.90;;;;;;4418218;32;20467;-68
2021/12/07 00:43:11;;;;;;;6.35;3.45;;;-2.90;99.90;;;;;;4405563;32;20099;-71
2021/12/07 00:45:39;;;;;;;5.05;3.20;;;-2.90;99.90;;;;;;4418128;32;20101;-70
2021/12/07 00:48:07;;;;;;;4.47;2.95;;;-2.80;99.90;;;;;;4418510;32;20091;-70
2021/12/07 00:50:36;;;;;;;4.90;3.30;;;-3.00;99.90;;;;;;4407890;32;20154;-69
2021/12/07 00:53:05;;;;;;;5.45;3.40;;;-2.90;99.90;;;;;;4402757;32;20148;-69
2021/12/07 00:55:40;;;;;;;5.03;3.67;;;-3.00;99.90;;;;;;4390432;32;20109;-70
2021/12/07 00:58:17;;;;;;;4.50;3.28;;;-3.10;99.90;;;;;;4390024;32;20474;-70
2021/12/07 01:00:45;;;;;;;5.12;3.53;;;-3.00;99.90;;;;;;4403817;32;20150;-70
2021/12/07 01:03:12;;;;;;;5.62;4.20;;;-3.10;99.90;;;;;;4389996;32;20070;-70
2021/12/07 01:05:41;;;;;;;6.87;4.32;;;-3.10;99.90;;;;;;4402779;32;20180;-70
2021/12/07 01:24:41;;;;;;;4.10;2.65;;;-3.00;99.90;;;;;;4413314;32;20087;-68
2021/12/07 01:27:17;;;;;;;4.20;2.80;;;-3.20;99.90;;;;;;4402307;32;20076;-70
2021/12/07 01:29:50;;;;;;;5.87;2.87;;;-3.10;99.90;;;;;;4402866;32;20070;-69
2021/12/07 01:35:41;;;;;;;4.72;2.97;;;-3.20;99.90;;;;;;4402023;32;20144;-70
2021/12/07 01:51:01;;;;;;;3.83;2.72;;;-3.10;99.90;;;;;;4393052;32;20078;-70
2021/12/07 02:01:43;;;;;;;3.72;2.50;;;-3.30;99.90;;;;;;4391947;32;20089;-70
2021/12/07 02:04:09;;;;;;;4.03;2.60;;;-3.30;99.90;;;;;;4379388;32;20448;-70
2021/12/07 02:06:36;;;;;;;3.50;2.40;;;-3.10;99.90;;;;;;4379225;32;20073;-70
2021/12/07 02:09:05;;;;;;;5.78;3.12;;;-3.20;99.90;;;;;;4391528;32;20077;-70
2021/12/07 02:11:33;;;;;;;5.40;2.85;;;-3.40;99.90;;;;;;4391365;32;20082;-70
2021/12/07 02:16:29;;;;;;;5.05;3.00;;;-3.30;99.90;;;;;;4391262;32;20061;-70
2021/12/07 02:18:56;;;;;;;6.50;3.08;;;-3.20;99.90;;;;;;4391755;32;20463;-70
2021/12/07 02:21:25;;;;;;;9.68;3.55;;;-3.30;99.90;;;;;;4366512;32;20155;-70
2021/12/07 02:23:53;;;;;;;6.25;3.20;;;-3.30;99.90;;;;;;4392786;32;20535;-70
2021/12/07 02:26:20;;;;;;;7.25;3.20;;;-3.20;99.90;;;;;;4391008;32;20112;-70
2021/12/07 02:28:49;;;;;;;6.07;2.92;;;-3.20;99.90;;;;;;4391689;32;20077;-70
2021/12/07 02:31:16;;;;;;;8.65;3.50;;;-3.20;99.90;;;;;;4379671;32;20166;-70
2021/12/07 02:33:42;;;;;;;6.00;3.28;;;-3.30;99.90;;;;;;4378834;32;20081;-70
2021/12/07 02:36:09;;;;;;;5.28;3.08;;;-3.30;99.90;;;;;;4392926;32;20171;-70
2021/12/07 02:38:36;;;;;;;6.75;3.00;;;-3.30;99.90;;;;;;4366451;32;20173;-71
2021/12/07 02:41:04;;;;;;;5.82;3.28;;;-3.30;99.90;;;;;;4378393;32;20165;-70
2021/12/07 02:43:31;;;;;;;9.73;3.58;;;-3.20;99.90;;;;;;4392562;32;20176;-71
2021/12/07 02:45:58;;;;;;;6.75;3.12;;;-3.20;99.90;;;;;;4378930;32;20498;-70
2021/12/07 02:48:24;;;;;;;6.85;3.20;;;-3.30;99.90;;;;;;4378935;32;20491;-69
2021/12/07 02:50:52;;;;;;;5.90;3.17;;;-3.30;99.90;;;;;;4378127;32;20451;-71
2021/12/07 02:53:26;;;;;;;5.28;3.08;;;-3.30;99.90;;;;;;4378490;32;20458;-70
2021/12/07 02:55:58;;;;;;;4.45;2.92;;;-3.10;99.90;;;;;;4390945;32;20085;-70
2021/12/07 02:58:25;;;;;;;7.20;3.30;;;-3.30;99.90;;;;;;4391399;32;20070;-69
2021/12/07 03:01:07;;;;;;;5.60;2.80;;;-3.20;99.90;;;;;;4378205;32;20085;-70
2021/12/07 03:03:38;;;;;;;4.87;2.65;;;-3.30;99.90;;;;;;4390936;32;20518;-70
2021/12/07 03:27:41;;;;;;;6.37;3.30;;;-3.70;99.90;;;;;;4390172;32;20065;-69
2021/12/07 03:30:08;;;;;;;9.85;3.22;;;-3.70;99.90;;;;;;4378650;32;20085;-71
2021/12/07 03:32:34;;;;;;;4.05;2.90;;;-3.80;99.90;;;;;;4390919;32;20507;-71
2021/12/07 03:35:01;;;;;;;8.88;3.37;;;-3.70;99.90;;;;;;4390436;32;20082;-69
2021/12/07 03:37:27;;;;;;;7.43;3.28;;;-3.90;99.90;;;;;;4390142;32;20523;-70
2021/12/07 03:39:54;;;;;;;16.87;3.60;;;-3.90;99.90;;;;;;4377530;32;20113;-70
2021/12/07 03:42:21;;;;;;;10.02;4.15;;;-3.80;99.90;;;;;;4390026;32;20069;-70
2021/12/07 03:44:47;;;;;;;8.85;3.90;;;-3.90;99.90;;;;;;4391595;32;20451;-70
2021/12/07 03:47:14;;;;;;;15.07;4.43;;;-3.90;99.90;;;;;;4391835;32;20503;-69
2021/12/07 03:49:40;;;;;;;7.18;4.03;;;-3.90;99.90;;;;;;4365310;32;20081;-70
2021/12/07 03:52:07;;;;;;;7.53;3.47;;;-4.00;99.90;;;;;;4389853;32;20550;-70
2021/12/07 03:54:34;;;;;;;19.27;4.30;;;-4.00;99.90;;;;;;4377551;32;20062;-69
2021/12/07 03:57:00;;;;;;;9.00;4.40;;;-4.10;99.90;;;;;;4365010;32;20077;-69
2021/12/07 03:59:27;;;;;;;16.90;4.35;;;-4.20;99.90;;;;;;4390157;32;20070;-70
2021/12/07 04:01:54;;;;;;;12.98;4.32;;;-4.10;99.90;;;;;;4376985;32;20082;-70
2021/12/07 04:04:20;;;;;;;9.57;4.10;;;-4.20;99.90;;;;;;4391396;32;20148;-70
2021/12/07 04:06:47;;;;;;;8.07;3.90;;;-4.10;99.90;;;;;;4390005;32;20133;-70
2021/12/07 04:09:14;;;;;;;10.13;4.25;;;-4.10;99.90;;;;;;4377498;32;20085;-70
2021/12/07 04:11:40;;;;;;;9.13;4.70;;;-4.10;99.90;;;;;;4377819;32;20161;-70
2021/12/07 04:14:07;;;;;;;9.35;4.68;;;-4.20;99.90;;;;;;4365054;32;20165;-69
2021/12/07 04:16:34;;;;;;;12.88;4.28;;;-4.30;99.90;;;;;;4377425;32;20156;-70
2021/12/07 04:19:01;;;;;;;11.45;5.15;;;-4.20;99.90;;;;;;4377732;32;20069;-70
2021/12/07 04:21:27;;;;;;;10.93;5.00;;;-4.40;99.90;;;;;;4377543;32;20167;-69
2021/12/07 04:23:54;;;;;;;6.72;3.65;;;-4.30;99.90;;;;;;4389877;32;20119;-70
2021/12/07 04:26:21;;;;;;;9.02;4.50;;;-4.40;99.90;;;;;;4389708;32;20085;-70
2021/12/07 04:28:48;;;;;;;7.68;5.07;;;-4.50;99.90;;;;;;4377178;32;20158;-69
2021/12/07 04:31:14;;;;;;;8.45;4.43;;;-4.50;99.90;;;;;;4390387;32;20491;-71
2021/12/07 04:33:42;;;;;;;7.28;4.15;;;-4.60;99.90;;;;;;4389536;32;20058;-70
2021/12/07 04:36:10;;;;;;;11.60;4.50;;;-4.60;99.90;;;;;;4389751;32;20109;-69
2021/12/07 04:38:37;;;;;;;8.15;3.97;;;-4.60;99.90;;;;;;4389808;32;20073;-70
2021/12/07 04:41:05;;;;;;;6.12;3.72;;;-4.80;99.90;;;;;;4364904;32;20093;-70
2021/12/07 04:43:31;;;;;;;6.03;2.97;;;-4.80;99.90;;;;;;4377241;32;20066;-70
2021/12/07 04:49:22;;;;;;;7.47;3.35;;;-4.80;99.90;;;;;;4390391;32;20085;-68
2021/12/07 04:59:35;;;;;;;6.03;3.22;;;-5.00;99.90;;;;;;4390281;32;20065;-70
2021/12/07 05:02:02;;;;;;;4.53;2.92;;;-5.00;99.90;;;;;;4389594;32;20129;-70
2021/12/07 05:04:32;;;;;;;8.15;3.50;;;-4.90;99.90;;;;;;4389534;32;20081;-69
2021/12/07 05:07:12;;;;;;;8.02;3.92;;;-4.90;99.90;;;;;;4377205;32;20074;-67
2021/12/07 05:14:38;;;;;;;8.73;3.80;;;-4.90;99.90;;;;;;4379632;32;20556;-69
2021/12/07 05:38:51;;;;;;;4.85;2.25;;;-4.90;99.90;;;;;;4381791;32;20074;-70
2021/12/07 05:41:18;;;;;;;6.90;3.25;;;-4.70;99.90;;;;;;4383260;32;20508;-66
2021/12/07 05:43:46;;;;;;;4.53;1.48;;;-4.80;99.90;;;;;;4392687;32;20080;-67
2021/12/07 05:46:12;;;;;;;1.27;0.90;;;-4.80;99.90;;;;;;4376748;32;20607;-64
2021/12/07 05:48:39;;;;;;;1.83;1.17;;;-4.90;99.90;;;;;;4386830;32;20078;-66
2021/12/07 05:51:05;;;;;;;2.53;1.35;;;-4.90;99.90;;;;;;4389032;32;20101;-67
2021/12/07 05:53:34;;;;;;;9.27;6.15;;;-4.70;99.90;;;;;;4374594;32;20542;-70
2021/12/07 05:56:02;;;;;;;27.48;17.85;;;-4.90;99.90;;;;;;4389426;32;20078;-67
2021/12/07 05:58:29;;;;;;;32.35;21.80;;;-4.90;99.90;;;;;;4376026;32;20136;-64
2021/12/07 06:00:58;;;;;;;14.38;9.82;;;-4.90;99.90;;;;;;4388060;32;20088;-69
2021/12/07 06:03:26;;;;;;;13.05;7.82;;;-5.10;99.90;;;;;;4399001;32;20154;-68
2021/12/07 06:05:53;;;;;;;5.78;4.03;;;-5.00;99.90;;;;;;4375755;32;20492;-68
2021/12/07 06:08:21;;;;;;;6.53;4.37;;;-5.00;99.90;;;;;;4385682;32;20164;-67
2021/12/07 06:10:48;;;;;;;8.20;5.18;;;-4.60;99.90;;;;;;4389208;32;20057;-67
2021/12/07 06:13:15;;;;;;;8.07;4.85;;;-4.60;99.90;;;;;;4370527;32;20082;-65
2021/12/07 06:15:47;;;;;;;9.80;4.37;;;-4.30;99.90;;;;;;4364886;32;20072;-68
2021/12/07 06:18:14;;;;;;;6.68;4.32;;;-4.00;99.90;;;;;;4375161;32;20062;-65
2021/12/07 06:20:42;;;;;;;8.63;4.68;;;-4.10;99.90;;;;;;4377195;32;20145;-67
2021/12/07 06:23:14;;;;;;;14.35;5.93;;;-4.10;99.90;;;;;;4366857;32;20074;-66
2021/12/07 06:25:41;;;;;;;7.97;4.32;;;-4.20;99.90;;;;;;4376834;32;20484;-65
2021/12/07 06:28:08;;;;;;;8.50;3.05;;;-4.60;99.90;;;;;;4378509;32;20093;-65
2021/12/07 06:30:34;;;;;;;8.93;3.12;;;-4.60;99.90;;;;;;4370897;32;20081;-62
2021/12/07 06:33:02;;;;;;;8.13;3.17;;;-4.30;99.90;;;;;;4391177;32;20159;-64
2021/12/07 06:35:28;;;;;;;6.72;2.90;;;-4.50;99.90;;;;;;4372073;32;20195;-63
2021/12/07 06:37:55;;;;;;;5.00;3.00;;;-4.60;99.90;;;;;;4369234;32;20590;-64
2021/12/07 06:40:21;;;;;;;8.90;3.15;;;-4.40;99.90;;;;;;4379844;32;20077;-66
2021/12/07 06:42:48;;;;;;;7.18;3.10;;;-4.50;99.90;;;;;;4356265;32;20512;-64
2021/12/07 06:45:14;;;;;;;5.10;3.17;;;-4.70;99.90;;;;;;4385273;32;20109;-63
2021/12/07 06:47:41;;;;;;;5.90;3.40;;;-4.60;99.90;;;;;;4385139;32;20073;-67
2021/12/07 06:50:10;;;;;;;11.25;3.33;;;-4.50;99.90;;;;;;4388410;32;20058;-64
2021/12/07 06:52:37;;;;;;;9.35;3.53;;;-4.40;99.90;;;;;;4373495;32;20161;-62
2021/12/07 06:55:06;;;;;;;10.85;3.37;;;-4.80;99.90;;;;;;4371519;32;20082;-64
2021/12/07 06:57:34;;;;;;;9.43;3.20;;;-4.60;99.90;;;;;;4363969;32;20090;-65
2021/12/07 07:00:00;;;;;;;10.10;3.90;;;-4.40;99.90;;;;;;4367345;32;20177;-64
2021/12/07 07:02:27;;;;;;;6.15;3.37;;;-4.30;99.90;;;;;;4376593;32;20070;-64
2021/12/07 07:04:53;;;;;;;9.18;4.12;;;-4.40;99.90;;;;;;4387562;32;20102;-66
2021/12/07 07:07:22;;;;;;;12.32;4.00;;;-4.50;99.90;;;;;;4371457;32;20081;-64
2021/12/07 07:09:49;;;;;;;10.80;3.97;;;-4.30;99.90;;;;;;4373006;32;20085;-64
2021/12/07 07:12:15;;;;;;;6.97;3.50;;;-4.80;99.90;;;;;;4376649;32;20558;-64
2021/12/07 07:14:42;;;;;;;8.20;4.68;;;-4.80;99.90;;;;;;4378976;32;20162;-65
2021/12/07 07:17:08;;;;;;;13.32;4.50;;;-4.60;99.90;;;;;;4376306;32;20142;-66
2021/12/07 07:19:35;;;;;;;11.05;4.18;;;-4.50;99.90;;;;;;4388485;32;20109;-65
2021/12/07 07:22:02;;;;;;;17.15;6.35;;;-4.40;99.90;;;;;;4374733;32;20073;-64
2021/12/07 07:24:33;;;;;;;13.00;4.85;;;-4.30;99.90;;;;;;4360818;32;20073;-65
2021/12/07 07:27:01;;;;;;;7.47;5.20;;;-4.50;99.90;;;;;;4385701;32;20113;-65
2021/12/07 07:29:27;;;;;;;10.73;4.65;;;-4.50;99.90;;;;;;4383241;32;20077;-64
2021/12/07 07:31:56;;;;;;;7.85;5.37;;;-5.10;99.90;;;;;;4365060;32;20154;-64
2021/12/07 07:34:22;;;;;;;14.63;5.65;;;-4.50;99.90;;;;;;4361209;32;20172;-63
2021/12/07 07:36:49;;;;;;;10.43;4.30;;;-4.70;99.90;;;;;;4374195;32;20075;-68
2021/12/07 07:39:15;;;;;;;9.55;4.35;;;-5.00;99.90;;;;;;4387069;32;20065;-65
2021/12/07 07:41:42;;;;;;;9.88;4.47;;;-5.00;99.90;;;;;;4380016;32;20073;-67
2021/12/07 07:44:09;;;;;;;13.30;4.90;;;-5.00;99.90;;;;;;4374544;32;20511;-66
2021/12/07 07:46:35;;;;;;;7.87;3.62;;;-4.70;99.90;;;;;;4370958;32;20508;-68
2021/12/07 07:49:04;;;;;;;7.62;3.90;;;-4.40;99.90;;;;;;4378689;32;20132;-66
2021/12/07 07:51:34;;;;;;;7.28;3.28;;;-4.70;99.90;;;;;;4386636;32;20058;-65
2021/12/07 07:54:01;;;;;;;6.32;3.75;;;-4.90;99.90;;;;;;4378696;32;20097;-65
2021/12/07 07:56:29;;;;;;;6.30;2.87;;;-4.70;99.90;;;;;;4375242;32;20436;-65
2021/12/07 07:58:57;;;;;;;6.05;3.05;;;-4.90;99.90;;;;;;4372466;32;20084;-66
2021/12/07 08:01:24;;;;;;;6.62;3.03;;;-4.90;99.90;;;;;;4379502;32;20067;-62
2021/12/07 08:03:51;;;;;;;9.23;3.83;;;-4.20;99.90;;;;;;4382781;32;20082;-66
2021/12/07 08:06:19;;;;;;;5.47;3.22;;;-3.90;99.90;;;;;;4373719;32;20088;-66
2021/12/07 08:08:45;;;;;;;4.87;2.85;;;-4.20;99.90;;;;;;4374406;32;20073;-66
2021/12/07 08:11:13;;;;;;;8.23;3.80;;;-4.30;99.90;;;;;;4372171;32;20114;-63
2021/12/07 08:13:41;;;;;;;8.60;3.72;;;-4.00;99.90;;;;;;4368715;32;20542;-64
2021/12/07 08:16:15;;;;;;;8.57;3.20;;;-4.10;99.90;;;;;;4383472;32;20187;-62
2021/12/07 08:18:47;;;;;;;5.03;3.12;;;-4.10;99.90;;;;;;4352357;32;20069;-63
2021/12/07 08:21:16;;;;;;;5.45;2.70;;;-4.30;99.90;;;;;;4365702;32;20103;-61
2021/12/07 08:23:44;;;;;;;6.57;2.90;;;-4.40;99.90;;;;;;4378326;32;20082;-63
2021/12/07 08:26:16;;;;;;;8.13;3.12;;;-4.40;99.90;;;;;;4386699;32;20081;-64
2021/12/07 08:28:42;;;;;;;4.55;2.83;;;-4.80;99.90;;;;;;4373914;32;20081;-65
2021/12/07 08:31:09;;;;;;;7.28;2.80;;;-4.60;99.90;;;;;;4380567;32;20117;-66
2021/12/07 08:33:36;;;;;;;4.03;2.60;;;-4.60;99.90;;;;;;4382387;32;20096;-62
2021/12/07 08:36:04;;;;;;;4.10;2.55;;;-4.70;99.90;;;;;;4379488;32;20552;-65
2021/12/07 08:38:31;;;;;;;5.45;3.15;;;-4.40;99.90;;;;;;4370995;32;20520;-65
2021/12/07 08:40:58;;;;;;;5.70;3.08;;;-4.40;99.90;;;;;;4377915;32;20066;-64
2021/12/07 08:43:29;;;;;;;4.57;2.60;;;-4.30;99.90;;;;;;4372011;32;20062;-64
2021/12/07 08:45:59;;;;;;;5.35;2.95;;;-4.30;99.90;;;;;;4384198;32;20504;-65
2021/12/07 08:48:27;;;;;;;4.35;2.60;;;-4.50;99.90;;;;;;4379368;32;20078;-67
2021/12/07 08:50:56;;;;;;;4.95;2.97;;;-4.40;99.90;;;;;;4380287;32;20527;-64
2021/12/07 08:53:23;;;;;;;4.75;2.97;;;-4.40;99.90;;;;;;4361733;32;20089;-67
2021/12/07 09:01:31;;;;;;;4.22;2.75;;;-3.90;99.90;;;;;;4358137;32;20448;-64
2021/12/07 09:03:59;;;;;;;5.07;2.90;;;-3.80;99.90;;;;;;4371031;32;20478;-66
2021/12/07 09:06:28;;;;;;;7.18;3.33;;;-3.60;99.90;;;;;;4374763;32;20203;-63
2021/12/07 09:08:55;;;;;;;12.73;3.05;;;-3.50;99.90;;;;;;4379801;32;20154;-66
2021/12/07 09:11:23;;;;;;;9.65;3.10;;;-3.50;99.90;;;;;;4358573;32;20082;-64
2021/12/07 09:13:50;;;;;;;6.18;3.05;;;-3.80;99.40;;;;;;4388456;32;20093;-64
2021/12/07 09:16:19;;;;;;;6.25;2.78;;;-4.40;99.90;;;;;;4368359;32;20089;-63
2021/12/07 09:18:47;;;;;;;7.62;2.72;;;-4.50;99.90;;;;;;4387600;32;20519;-61
2021/12/07 09:21:15;;;;;;;7.85;3.67;;;-4.40;99.90;;;;;;4354917;32;20457;-64
2021/12/07 09:23:42;;;;;;;12.63;4.50;;;-4.00;99.90;;;;;;4387160;32;20102;-63
2021/12/07 09:26:09;;;;;;;7.72;3.58;;;-3.70;99.90;;;;;;4400695;32;20092;-62
2021/12/07 09:28:39;;;;;;;9.20;3.97;;;-3.50;99.90;;;;;;4372268;32;20173;-62
2021/12/07 09:31:08;;;;;;;11.95;4.47;;;-3.50;99.80;;;;;;4379633;32;20077;-62
2021/12/07 09:33:36;;;;;;;7.00;3.47;;;-3.80;99.90;;;;;;4372116;32;20071;-66
2021/12/07 09:36:05;;;;;;;7.55;3.25;;;-4.30;99.90;;;;;;4376296;32;20113;-63
2021/12/07 09:38:32;;;;;;;7.68;2.87;;;-4.50;99.90;;;;;;4388425;32;20196;-63
2021/12/07 09:40:59;;;;;;;4.35;2.85;;;-4.50;99.90;;;;;;4376850;32;20089;-64
2021/12/07 09:43:25;;;;;;;5.72;2.62;;;-4.40;99.90;;;;;;4378387;32;20081;-64
2021/12/07 09:45:52;;;;;;;5.28;2.92;;;-4.70;99.90;;;;;;4365016;32;20101;-64
2021/12/07 09:48:19;;;;;;;8.48;3.60;;;-4.50;99.90;;;;;;4391085;32;20105;-64
2021/12/07 09:50:53;;;;;;;8.45;4.15;;;-4.30;99.90;;;;;;4391193;32;20093;-65
2021/12/07 09:53:22;;;;;;;12.18;3.60;;;-4.10;99.90;;;;;;4367043;32;20591;-64
2021/12/07 09:55:50;;;;;;;7.10;3.70;;;-3.70;99.90;;;;;;4391794;32;20077;-64
2021/12/07 09:58:18;;;;;;;10.95;3.80;;;-4.00;99.90;;;;;;4390660;32;20166;-65
2021/12/07 10:00:47;;;;;;;6.22;3.03;;;-3.60;99.90;;;;;;4390905;32;20185;-63
2021/12/07 10:03:15;;;;;;;6.50;3.33;;;-3.60;98.90;;;;;;4379069;32;20514;-62
2021/12/07 10:05:43;;;;;;;14.82;4.05;;;-4.00;99.90;;;;;;4366861;32;20447;-63
2021/12/07 10:08:10;;;;;;;5.25;2.70;;;-3.70;99.70;;;;;;4391616;32;20131;-64
2021/12/07 10:10:58;;;;;;;7.18;3.53;;;-3.50;98.10;;;;;;4379051;32;20078;-64
2021/12/07 10:13:28;;;;;;;5.75;2.28;;;-3.50;97.00;;;;;;4391963;32;20089;-63
2021/12/07 10:15:57;;;;;;;4.78;2.92;;;-3.90;97.90;;;;;;4379142;32;20065;-63
2021/12/07 10:18:26;;;;;;;7.22;3.37;;;-3.50;96.90;;;;;;4379131;32;20077;-63
2021/12/07 10:21:03;;;;;;;5.90;3.60;;;-3.40;96.50;;;;;;4367013;32;20085;-63
2021/12/07 10:23:53;;;;;;;5.30;2.97;;;-3.10;95.20;;;;;;4378913;32;20511;-64
2021/12/07 10:26:28;;;;;;;8.73;2.97;;;-3.50;94.50;;;;;;4378571;32;20069;-63
2021/12/07 10:29:22;;;;;;;7.03;3.03;;;-3.60;94.80;;;;;;4378909;32;20466;-64
2021/12/07 10:32:05;;;;;;;5.90;3.00;;;-3.40;95.20;;;;;;4377193;32;20240;-63
2021/12/07 10:34:40;;;;;;;8.00;3.62;;;-3.30;94.80;;;;;;4366346;32;20100;-65
2021/12/07 10:37:14;;;;;;;7.53;3.65;;;-3.30;93.40;;;;;;4390891;32;20089;-64
2021/12/07 10:39:46;;;;;;;6.20;3.08;;;-3.20;94.60;;;;;;4366004;32;20062;-64
2021/12/07 10:42:25;;;;;;;11.38;3.78;;;-3.30;93.50;;;;;;4391081;32;20512;-66
2021/12/07 10:44:52;;;;;;;8.60;3.78;;;-3.20;94.20;;;;;;4378569;32;20075;-65
2021/12/07 10:47:22;;;;;;;9.18;4.72;;;-3.00;93.60;;;;;;4379361;32;20074;-64
2021/12/07 10:49:52;;;;;;;7.65;3.50;;;-3.40;92.90;;;;;;4378403;32;20157;-64
2021/12/07 10:52:42;;;;;;;6.62;3.55;;;-3.70;94.00;;;;;;4365994;32;20078;-63
2021/12/07 10:55:20;;;;;;;7.57;3.55;;;-3.60;93.90;;;;;;4390757;32;20077;-64
2021/12/07 10:58:02;;;;;;;8.32;3.85;;;-3.40;93.70;;;;;;4391316;32;20131;-64
2021/12/07 11:00:39;;;;;;;7.15;3.47;;;-3.30;93.70;;;;;;4378214;32;20445;-64
2021/12/07 11:03:09;;;;;;;8.93;3.75;;;-3.50;94.00;;;;;;4378430;32;20262;-64
2021/12/07 11:05:46;;;;;;;7.20;3.47;;;-3.60;94.10;;;;;;4392220;32;20069;-65
2021/12/07 11:08:15;;;;;;;7.85;3.40;;;-3.50;93.80;;;;;;4392207;32;20097;-64
2021/12/07 11:10:48;;;;;;;9.27;3.20;;;-3.50;93.50;;;;;;4365460;32;20093;-64
2021/12/07 11:13:22;;;;;;;8.85;3.10;;;-3.70;93.70;;;;;;4392103;32;20097;-64
2021/12/07 11:15:53;;;;;;;8.52;3.80;;;-3.90;92.60;;;;;;4390409;32;20089;-64
2021/12/07 11:18:30;;;;;;;7.12;3.12;;;-3.70;93.00;;;;;;4378685;32;20081;-64
2021/12/07 11:21:03;;;;;;;6.15;3.15;;;-4.00;91.30;;;;;;4378425;32;20101;-64
2021/12/07 11:23:35;;;;;;;9.02;3.60;;;-4.10;91.00;;;;;;4390554;32;20523;-65
2021/12/07 11:31:35;;;;;;;9.95;3.60;;;-3.90;89.20;;;;;;4379795;32;20108;-64
2021/12/07 11:34:17;;;;;;;5.55;3.45;;;-4.00;89.40;;;;;;4390336;32;20154;-63
2021/12/07 11:37:02;;;;;;;4.75;3.00;;;-3.90;88.70;;;;;;4377856;32;20158;-65
2021/12/07 11:39:38;;;;;;;4.25;2.50;;;-4.00;89.40;;;;;;4365241;32;20074;-64
2021/12/07 11:42:26;;;;;;;5.30;2.85;;;-4.10;91.10;;;;;;4391415;32;20077;-65
2021/12/07 11:45:12;;;;;;;7.25;3.78;;;-3.90;91.20;;;;;;4371289;32;20082;-64
2021/12/07 11:47:47;;;;;;;8.70;2.97;;;-3.80;92.00;;;;;;4398057;32;20501;-63
2021/12/07 11:50:48;;;;;;;7.60;3.75;;;-3.60;92.40;;;;;;4376677;32;20118;-65
2021/12/07 11:53:19;;;;;;;7.93;3.12;;;-3.80;91.00;;;;;;4368298;32;20062;-65
2021/12/07 11:55:51;;;;;;;8.57;3.85;;;-3.90;91.50;;;;;;4350663;32;20059;-65
2021/12/07 11:58:19;;;;;;;8.15;3.30;;;-4.20;91.90;;;;;;4391230;32;20066;-66
2021/12/07 12:00:51;;;;;;;12.02;4.22;;;-4.10;92.30;;;;;;4375136;32;20477;-66
2021/12/07 12:03:22;;;;;;;11.60;3.55;;;-4.10;92.30;;;;;;4369014;32;20070;-65
2021/12/07 12:05:51;;;;;;;6.78;3.75;;;-4.20;91.60;;;;;;4381349;32;20097;-64
2021/12/07 12:08:20;;;;;;;9.27;4.15;;;-4.20;91.20;;;;;;4381014;32;20133;-62
2021/12/07 12:11:03;;;;;;;11.73;4.40;;;-4.20;91.20;;;;;;4375785;32;20525;-62
2021/12/07 12:13:49;;;;;;;7.32;3.70;;;-4.10;91.90;;;;;;4361310;32;20077;-62
2021/12/07 12:16:46;;;;;;;10.80;4.40;;;-4.10;91.80;;;;;;4371556;32;20267;-66
2021/12/07 12:19:42;;;;;;;8.50;3.90;;;-4.00;92.10;;;;;;4387492;32;20089;-64
2021/12/07 12:22:27;;;;;;;14.93;4.40;;;-4.10;92.10;;;;;;4384831;32;20077;-66
2021/12/07 12:25:06;;;;;;;8.35;4.82;;;-4.30;93.10;;;;;;4397686;32;20108;-66
2021/12/07 12:27:35;;;;;;;10.93;4.62;;;-4.40;93.20;;;;;;4382638;32;20507;-68
2021/12/07 12:30:31;;;;;;;16.00;5.60;;;-4.30;93.20;;;;;;4378129;32;20128;-67
2021/12/07 12:33:08;;;;;;;15.48;4.70;;;-4.20;93.50;;;;;;4368786;32;20120;-65
2021/12/07 12:35:41;;;;;;;14.27;4.85;;;-4.30;93.40;;;;;;4387715;32;20154;-65
2021/12/07 12:38:33;;;;;;;13.32;4.60;;;-4.30;93.80;;;;;;4381548;32;20526;-65
2021/12/07 12:41:08;;;;;;;12.88;5.07;;;-4.20;93.90;;;;;;4374426;32;20599;-63
2021/12/07 12:43:53;;;;;;;9.32;3.83;;;-4.30;93.30;;;;;;4360747;32;20093;-63
2021/12/07 12:46:30;;;;;;;13.25;5.15;;;-4.40;92.90;;;;;;4388107;32;20107;-66
2021/12/07 12:49:07;;;;;;;10.75;4.22;;;-4.40;92.70;;;;;;4374309;32;20089;-65
2021/12/07 12:51:47;;;;;;;6.80;3.78;;;-4.30;92.20;;;;;;4383575;32;20066;-64
2021/12/07 12:54:16;;;;;;;5.45;3.47;;;-4.50;92.50;;;;;;4381060;32;20086;-63
2021/12/07 12:56:43;;;;;;;8.38;3.35;;;-4.60;92.40;;;;;;4381402;32;20072;-62
2021/12/07 12:59:12;;;;;;;7.87;3.80;;;-4.60;92.40;;;;;;4375574;32;20073;-64
2021/12/07 13:01:45;;;;;;;13.43;4.20;;;-4.60;92.40;;;;;;4388660;32;20136;-62
2021/12/07 13:04:30;;;;;;;9.68;4.05;;;-4.50;92.60;;;;;;4384507;32;20124;-62
2021/12/07 13:07:06;;;;;;;10.38;4.45;;;-4.60;92.00;;;;;;4369766;32;20560;-63
2021/12/07 13:09:46;;;;;;;8.43;3.90;;;-4.70;92.80;;;;;;4372466;32;20089;-63
2021/12/07 13:12:24;;;;;;;7.85;3.37;;;-4.60;92.40;;;;;;4375613;32;20139;-64
2021/12/07 13:14:57;;;;;;;10.73;4.62;;;-4.60;92.20;;;;;;4372685;32;20519;-65
2021/12/07 13:17:37;;;;;;;8.50;3.62;;;-4.60;91.80;;;;;;4376362;32;20081;-64
2021/12/07 13:20:31;;;;;;;6.95;3.75;;;-4.40;92.60;;;;;;4390120;32;20066;-62
2021/12/07 13:23:00;;;;;;;9.35;4.20;;;-4.60;91.90;;;;;;4372439;32;20109;-65
2021/12/07 13:25:29;;;;;;;7.05;3.42;;;-4.60;92.10;;;;;;4398617;32;20178;-64
2021/12/07 13:28:25;;;;;;;11.38;4.25;;;-4.70;92.00;;;;;;4376720;32;20117;-66
2021/12/07 13:31:02;;;;;;;10.93;4.05;;;-4.60;92.00;;;;;;4381850;32;20495;-64
2021/12/07 13:33:38;;;;;;;10.02;4.37;;;-4.70;92.20;;;;;;4380421;32;20077;-63
2021/12/07 13:36:46;;;;;;;11.00;4.10;;;-4.60;91.90;;;;;;4374524;32;20102;-62
2021/12/07 13:39:16;;;;;;;14.05;4.20;;;-4.50;92.30;;;;;;4356059;32;20088;-62
2021/12/07 13:42:22;;;;;;;14.52;4.18;;;-4.60;92.20;;;;;;4392163;32;20077;-64
2021/12/07 13:45:05;;;;;;;9.43;3.80;;;-4.60;92.50;;;;;;4354389;32;20088;-62
2021/12/07 13:47:43;;;;;;;14.52;4.45;;;-4.70;91.70;;;;;;4375443;32;20468;-63
2021/12/07 13:50:34;;;;;;;11.55;4.25;;;-4.80;91.90;;;;;;4378602;32;20146;-62
2021/12/07 13:53:01;;;;;;;8.15;4.57;;;-4.70;92.00;;;;;;4385992;32;20090;-63
2021/12/07 13:55:32;;;;;;;7.78;3.08;;;-4.80;91.60;;;;;;4361908;32;20106;-65
2021/12/07 13:58:03;;;;;;;3.85;1.77;;;-4.90;91.90;;;;;;4376848;32;20106;-65
2021/12/07 14:00:34;;;;;;;9.65;4.00;;;-5.10;92.10;;;;;;4376262;32;20123;-64
2021/12/07 14:03:07;;;;;;;9.90;4.00;;;-5.00;92.60;;;;;;4377217;32;20086;-63
2021/12/07 14:05:41;;;;;;;9.18;3.45;;;-5.00;92.20;;;;;;4363950;32;20166;-64
2021/12/07 14:08:12;;;;;;;11.20;4.53;;;-5.00;92.50;;;;;;4376378;32;20078;-63
2021/12/07 14:10:53;;;;;;;8.90;3.45;;;-5.00;92.60;;;;;;4364014;32;20081;-63
2021/12/07 14:13:21;;;;;;;12.02;3.75;;;-5.10;93.00;;;;;;4376757;32;20079;-65
2021/12/07 14:15:50;;;;;;;9.15;3.80;;;-5.10;93.50;;;;;;4377053;32;20089;-64
2021/12/07 14:18:22;;;;;;;10.00;4.32;;;-5.30;94.10;;;;;;4376713;32;20090;-64
2021/12/07 14:20:56;;;;;;;6.60;3.85;;;-5.30;94.80;;;;;;4363989;32;20147;-63
2021/12/07 14:23:29;;;;;;;7.03;3.60;;;-5.40;95.60;;;;;;4364329;32;20496;-64
2021/12/07 14:26:13;;;;;;;8.43;3.80;;;-5.40;96.40;;;;;;4377604;32;20597;-64
2021/12/07 14:28:48;;;;;;;8.32;3.97;;;-5.40;97.60;;;;;;4364132;32;20125;-63
2021/12/07 14:31:22;;;;;;;6.43;4.05;;;-5.40;98.70;;;;;;4376231;32;20166;-65
2021/12/07 14:34:00;;;;;;;9.90;4.10;;;-5.50;99.60;;;;;;4376069;32;20082;-63
2021/12/07 14:36:36;;;;;;;11.10;3.87;;;-5.40;99.90;;;;;;4364206;32;20092;-63
2021/12/07 14:39:14;;;;;;;9.95;3.92;;;-5.30;99.90;;;;;;4363559;32;20124;-65
2021/12/07 14:41:59;;;;;;;16.85;5.28;;;-5.30;99.90;;;;;;4376250;32;20086;-64
2021/12/07 14:44:31;;;;;;;8.73;4.40;;;-5.30;99.90;;;;;;4363453;32;20081;-64
2021/12/07 14:47:04;;;;;;;15.15;4.53;;;-5.30;99.90;;;;;;4375754;32;20524;-65
2021/12/07 14:49:33;;;;;;;11.27;4.28;;;-5.30;99.90;;;;;;4363769;32;20161;-64
2021/12/07 14:51:59;;;;;;;11.10;5.10;;;-5.30;99.90;;;;;;4375737;32;20082;-63
2021/12/07 14:54:26;;;;;;;6.80;3.80;;;-5.40;99.90;;;;;;4375780;32;20085;-64
2021/12/07 14:56:53;;;;;;;9.40;3.47;;;-5.50;99.90;;;;;;4363120;32;20147;-65
2021/12/07 14:59:22;;;;;;;9.70;4.70;;;-5.60;99.90;;;;;;4376500;32;20074;-64
2021/12/07 15:01:55;;;;;;;9.35;5.05;;;-5.50;99.90;;;;;;4375718;32;20074;-64